createdAt,value
2023-04-30T00:00:36.464Z,6.00
2023-04-30T00:03:24.868Z,6.00
2023-04-30T00:05:53.037Z,4.33
2023-04-30T00:08:20.972Z,5.25
2023-04-30T00:10:48.969Z,6.00
2023-04-30T00:13:17.285Z,7.00
2023-04-30T00:15:45.215Z,5.00
2023-04-30T00:18:13.453Z,6.00
2023-04-30T00:20:41.353Z,6.00
2023-04-30T00:23:09.334Z,6.00
2023-04-30T00:25:37.290Z,6.00
2023-04-30T00:28:05.355Z,5.00
2023-04-30T00:30:33.369Z,5.00
2023-04-30T00:33:01.366Z,6.00
2023-04-30T00:35:29.737Z,6.00
2023-04-30T00:37:57.810Z,5.00
2023-04-30T00:40:25.942Z,4.00
2023-04-30T00:42:55.841Z,5.00
2023-04-30T00:45:23.814Z,5.00
2023-04-30T00:47:51.875Z,5.00
2023-04-30T00:50:21.029Z,5.00
2023-04-30T00:52:49.010Z,5.00
2023-04-30T00:55:17.073Z,6.00
2023-04-30T00:57:45.053Z,3.67
2023-04-30T01:00:13.967Z,5.00
2023-04-30T01:02:42.222Z,4.00
2023-04-30T01:05:10.444Z,5.00
2023-04-30T01:07:45.316Z,5.00
2023-04-30T01:10:14.007Z,4.67
2023-04-30T01:12:45.228Z,5.00
2023-04-30T01:15:15.293Z,4.33
2023-04-30T01:18:06.517Z,4.00
2023-04-30T01:20:34.475Z,5.00
2023-04-30T01:23:13.665Z,3.00
2023-04-30T01:25:55.901Z,5.00
2023-04-30T01:28:24.911Z,2.33
2023-04-30T01:30:56.571Z,5.00
2023-04-30T01:33:24.620Z,5.00
2023-04-30T01:36:11.231Z,5.00
2023-04-30T01:38:42.206Z,5.00
2023-04-30T01:41:44.175Z,4.00
2023-04-30T01:44:37.792Z,2.67
2023-04-30T01:47:48.661Z,5.00
2023-04-30T01:50:33.762Z,3.67
2023-04-30T01:53:02.693Z,4.33
2023-04-30T01:55:37.537Z,3.67
2023-04-30T01:58:07.712Z,4.00
2023-04-30T02:00:35.672Z,4.00
2023-04-30T02:03:03.896Z,4.00
2023-04-30T02:05:32.081Z,5.00
2023-04-30T02:08:01.049Z,4.00
2023-04-30T02:10:30.551Z,5.00
2023-04-30T02:12:58.697Z,5.00
2023-04-30T02:15:28.007Z,5.00
2023-04-30T02:17:56.728Z,3.67
2023-04-30T02:20:24.768Z,5.00
2023-04-30T02:22:52.798Z,4.00
2023-04-30T02:25:21.180Z,3.00
2023-04-30T02:27:50.626Z,4.00
2023-04-30T02:30:20.248Z,4.00
2023-04-30T02:32:48.940Z,3.00
2023-04-30T02:35:16.853Z,3.00
2023-04-30T02:37:44.895Z,5.00
2023-04-30T02:40:13.096Z,3.00
2023-04-30T02:42:41.142Z,3.00
2023-04-30T02:45:09.614Z,3.00
2023-04-30T02:47:37.618Z,2.67
2023-04-30T02:50:06.359Z,4.00
2023-04-30T02:52:34.243Z,3.00
2023-04-30T02:55:26.952Z,4.00
2023-04-30T02:57:54.869Z,3.00
2023-04-30T03:00:23.218Z,2.67
2023-04-30T03:02:51.268Z,3.00
2023-04-30T03:05:19.375Z,4.50
2023-04-30T03:07:47.281Z,4.00
2023-04-30T03:10:15.469Z,4.00
2023-04-30T03:12:43.516Z,3.67
2023-04-30T03:15:11.777Z,3.00
2023-04-30T03:17:39.904Z,4.00
2023-04-30T03:20:08.425Z,2.00
2023-04-30T03:22:36.461Z,5.00
2023-04-30T03:25:04.843Z,2.00
2023-04-30T03:27:32.893Z,3.00
2023-04-30T03:30:01.046Z,2.67
2023-04-30T03:32:28.982Z,3.00
2023-04-30T03:34:57.345Z,3.00
2023-04-30T03:37:25.512Z,2.67
2023-04-30T03:39:53.910Z,4.00
2023-04-30T03:42:22.355Z,3.33
2023-04-30T03:44:50.663Z,3.00
2023-04-30T03:47:18.764Z,2.50
2023-04-30T03:49:49.177Z,3.67
2023-04-30T03:52:17.417Z,2.00
2023-04-30T03:54:45.596Z,3.00
2023-04-30T03:57:14.214Z,3.00
2023-04-30T03:59:42.733Z,3.00
2023-04-30T04:02:11.824Z,3.00
2023-04-30T04:04:40.094Z,1.00
2023-04-30T04:07:09.705Z,3.00
2023-04-30T04:09:37.708Z,2.00
2023-04-30T04:12:05.902Z,3.00
2023-04-30T04:14:34.199Z,2.00
2023-04-30T04:17:05.781Z,2.00
2023-04-30T04:19:33.942Z,1.00
2023-04-30T04:22:02.150Z,2.00
2023-04-30T04:24:30.156Z,3.00
2023-04-30T04:26:58.325Z,2.00
2023-04-30T04:29:26.356Z,1.67
2023-04-30T04:31:55.531Z,2.00
2023-04-30T04:34:23.642Z,3.00
2023-04-30T04:36:51.682Z,3.00
2023-04-30T04:39:19.843Z,2.67
2023-04-30T04:41:47.892Z,2.67
2023-04-30T04:44:15.820Z,4.00
2023-04-30T04:46:44.678Z,3.00
2023-04-30T04:49:13.255Z,3.00
2023-04-30T04:51:41.461Z,3.00
2023-04-30T04:54:09.401Z,2.67
2023-04-30T04:56:37.328Z,2.50
2023-04-30T04:59:05.840Z,2.67
2023-04-30T05:01:34.056Z,3.00
2023-04-30T05:04:02.147Z,3.00
2023-04-30T05:06:30.907Z,3.50
2023-04-30T05:08:59.058Z,2.00
2023-04-30T05:11:26.938Z,1.00
2023-04-30T05:13:55.193Z,3.00
2023-04-30T05:16:23.215Z,1.00
2023-04-30T05:18:52.497Z,4.00
2023-04-30T05:21:20.636Z,3.00
2023-04-30T05:23:48.756Z,2.00
2023-04-30T05:26:16.742Z,3.00
2023-04-30T05:28:45.361Z,3.00
2023-04-30T05:31:13.262Z,3.00
2023-04-30T05:33:41.659Z,2.00
2023-04-30T05:36:10.768Z,3.00
2023-04-30T05:38:38.727Z,2.67
2023-04-30T05:41:06.682Z,3.00
2023-04-30T05:43:34.896Z,3.00
2023-04-30T05:46:03.144Z,2.67
2023-04-30T05:48:31.149Z,2.00
2023-04-30T05:50:59.460Z,3.00
2023-04-30T05:53:27.738Z,3.00
2023-04-30T05:55:55.813Z,3.00
2023-04-30T05:58:24.032Z,3.00
2023-04-30T06:00:52.276Z,2.00
2023-04-30T06:03:20.400Z,2.00
2023-04-30T06:05:48.473Z,2.00
2023-04-30T06:08:16.557Z,2.00
2023-04-30T06:10:44.909Z,3.00
2023-04-30T06:13:12.826Z,2.00
2023-04-30T06:15:41.714Z,2.50
2023-04-30T06:18:09.826Z,1.00
2023-04-30T06:20:37.707Z,3.00
2023-04-30T06:23:05.679Z,2.00
2023-04-30T06:25:33.732Z,2.00
2023-04-30T06:28:01.864Z,1.25
2023-04-30T06:30:31.542Z,0.00
2023-04-30T06:32:59.508Z,2.00
2023-04-30T06:35:27.791Z,2.00
2023-04-30T06:37:55.929Z,1.00
2023-04-30T06:40:23.919Z,2.00
2023-04-30T06:42:51.929Z,2.00
2023-04-30T06:45:20.341Z,1.00
2023-04-30T06:47:49.202Z,1.00
2023-04-30T06:50:17.332Z,1.00
2023-04-30T06:52:45.395Z,1.00
2023-04-30T06:55:13.561Z,2.00
2023-04-30T06:57:41.647Z,0.00
2023-04-30T07:00:10.256Z,2.00
2023-04-30T07:02:38.872Z,2.00
2023-04-30T07:05:07.048Z,1.75
2023-04-30T07:07:35.003Z,1.00
2023-04-30T07:10:03.101Z,2.00
2023-04-30T07:12:31.510Z,1.67
2023-04-30T07:14:59.520Z,1.00
2023-04-30T07:17:27.850Z,0.67
2023-04-30T07:19:56.148Z,1.00
2023-04-30T07:22:24.308Z,1.00
2023-04-30T07:24:52.289Z,0.00
2023-04-30T07:27:20.527Z,1.00
2023-04-30T07:29:48.609Z,1.00
2023-04-30T07:32:16.586Z,1.00
2023-04-30T07:34:44.650Z,1.00
2023-04-30T07:37:12.498Z,1.00
2023-04-30T07:39:40.590Z,1.00
2023-04-30T07:42:08.674Z,1.00
2023-04-30T07:44:36.555Z,0.00
2023-04-30T07:47:05.025Z,1.00
2023-04-30T07:49:33.013Z,0.00
2023-04-30T07:52:03.861Z,2.00
2023-04-30T07:54:31.835Z,0.00
2023-04-30T07:56:59.746Z,1.00
2023-04-30T07:59:27.657Z,1.00
2023-04-30T08:01:56.136Z,1.00
2023-04-30T08:04:24.264Z,0.33
2023-04-30T08:06:52.419Z,0.00
2023-04-30T08:09:20.387Z,1.00
2023-04-30T08:11:48.328Z,1.00
2023-04-30T08:14:16.312Z,1.00
2023-04-30T08:16:44.241Z,1.00
2023-04-30T08:19:12.106Z,1.00
2023-04-30T08:21:40.068Z,1.00
2023-04-30T08:24:08.419Z,1.67
2023-04-30T08:26:36.426Z,1.00
2023-04-30T08:29:04.304Z,2.00
2023-04-30T08:31:32.403Z,1.00
2023-04-30T08:34:00.464Z,1.00
2023-04-30T08:36:28.790Z,1.00
2023-04-30T08:38:57.677Z,1.00
2023-04-30T08:41:26.423Z,1.00
2023-04-30T08:43:54.415Z,1.00
2023-04-30T08:46:23.385Z,2.00
2023-04-30T08:48:51.453Z,1.00
2023-04-30T08:51:19.412Z,1.00
2023-04-30T08:53:47.339Z,1.00
2023-04-30T08:56:15.384Z,2.00
2023-04-30T08:58:43.870Z,2.00
2023-04-30T09:01:12.425Z,1.00
2023-04-30T09:03:40.895Z,1.00
2023-04-30T09:06:08.964Z,1.00
2023-04-30T09:08:44.057Z,1.00
2023-04-30T09:11:29.453Z,1.00
2023-04-30T09:13:59.064Z,1.00
2023-04-30T09:16:30.882Z,1.00
2023-04-30T09:18:59.570Z,1.00
2023-04-30T09:21:35.257Z,1.33
2023-04-30T09:24:04.750Z,1.00
2023-04-30T09:26:33.547Z,1.00
2023-04-30T09:29:02.126Z,1.00
2023-04-30T09:31:30.572Z,1.00
2023-04-30T09:33:58.576Z,1.00
2023-04-30T09:36:27.784Z,2.00
2023-04-30T09:38:56.317Z,2.00
2023-04-30T09:41:28.585Z,1.00
2023-04-30T09:43:56.904Z,1.67
2023-04-30T09:46:35.869Z,2.67
2023-04-30T09:49:05.467Z,1.67
2023-04-30T09:51:33.545Z,2.00
2023-04-30T09:54:02.708Z,2.00
2023-04-30T09:56:30.715Z,2.00
2023-04-30T09:58:58.973Z,1.00
2023-04-30T10:01:27.653Z,1.00
2023-04-30T10:03:56.103Z,2.00
2023-04-30T10:06:24.341Z,2.67
2023-04-30T10:08:53.992Z,2.00
2023-04-30T10:11:22.205Z,2.00
2023-04-30T10:13:56.273Z,3.00
2023-04-30T10:16:32.365Z,1.67
2023-04-30T10:19:05.507Z,2.00
2023-04-30T10:21:34.096Z,2.00
2023-04-30T10:24:02.060Z,1.67
2023-04-30T10:26:30.383Z,3.00
2023-04-30T10:28:59.104Z,3.00
2023-04-30T10:31:28.090Z,2.00
2023-04-30T10:34:17.513Z,2.00
2023-04-30T10:36:50.618Z,2.00
2023-04-30T10:39:19.159Z,2.00
2023-04-30T10:41:48.782Z,3.00
2023-04-30T10:44:21.830Z,3.00
2023-04-30T10:46:49.728Z,4.00
2023-04-30T10:49:25.629Z,2.33
2023-04-30T10:51:58.512Z,3.00
2023-04-30T10:54:31.104Z,3.67
2023-04-30T10:57:12.055Z,3.00
2023-04-30T10:59:47.581Z,3.00
2023-04-30T11:02:16.200Z,2.33
2023-04-30T11:05:14.707Z,4.00
2023-04-30T11:07:56.446Z,3.00
2023-04-30T11:10:26.480Z,3.00
2023-04-30T11:12:55.380Z,2.33
2023-04-30T11:15:27.539Z,2.00
2023-04-30T11:17:59.543Z,3.00
2023-04-30T11:20:28.053Z,3.00
2023-04-30T11:23:11.383Z,1.00
2023-04-30T11:25:43.569Z,4.00
2023-04-30T11:28:16.450Z,3.00
2023-04-30T11:31:00.203Z,3.00
2023-04-30T11:33:31.923Z,3.00
2023-04-30T11:36:00.748Z,2.33
2023-04-30T11:38:30.109Z,2.00
2023-04-30T11:40:58.287Z,3.00
2023-04-30T11:43:27.345Z,3.50
2023-04-30T11:46:01.731Z,2.67
2023-04-30T11:48:37.587Z,3.00
2023-04-30T11:51:18.706Z,2.00
2023-04-30T11:53:47.611Z,4.00
2023-04-30T11:56:22.608Z,3.00
2023-04-30T11:58:52.214Z,3.00
2023-04-30T12:01:21.146Z,1.00
2023-04-30T12:03:50.347Z,2.67
2023-04-30T12:06:36.957Z,2.50
2023-04-30T12:09:07.410Z,2.00
2023-04-30T12:11:36.307Z,2.00
2023-04-30T12:14:10.668Z,2.67
2023-04-30T12:16:49.511Z,3.00
2023-04-30T12:19:21.346Z,2.00
2023-04-30T12:21:49.862Z,2.00
2023-04-30T12:24:18.878Z,3.00
2023-04-30T12:26:48.060Z,3.00
2023-04-30T12:29:16.871Z,2.00
2023-04-30T12:31:45.737Z,2.00
2023-04-30T12:34:14.394Z,3.00
2023-04-30T12:36:43.146Z,2.67
2023-04-30T12:39:18.066Z,1.00
2023-04-30T12:41:47.757Z,3.00
2023-04-30T12:44:23.785Z,3.00
2023-04-30T12:47:00.998Z,3.00
2023-04-30T12:49:34.374Z,1.00
2023-04-30T12:52:08.631Z,3.00
2023-04-30T12:54:37.100Z,3.00
2023-04-30T12:57:06.116Z,2.33
2023-04-30T12:59:39.210Z,2.00
2023-04-30T13:02:12.067Z,2.67
2023-04-30T13:04:43.708Z,3.00
2023-04-30T13:07:11.881Z,2.67
2023-04-30T13:09:39.855Z,2.00
2023-04-30T13:12:08.442Z,2.33
2023-04-30T13:14:36.729Z,2.67
2023-04-30T13:17:06.996Z,3.00
2023-04-30T13:19:35.327Z,2.67
2023-04-30T13:22:03.310Z,2.00
2023-04-30T13:24:31.765Z,3.00
2023-04-30T13:26:59.947Z,2.00
2023-04-30T13:29:28.174Z,3.00
2023-04-30T13:31:56.378Z,1.00
2023-04-30T13:34:24.545Z,2.00
2023-04-30T13:36:53.576Z,2.00
2023-04-30T13:39:22.012Z,2.00
2023-04-30T13:41:50.751Z,2.00
2023-04-30T13:44:18.680Z,3.00
2023-04-30T13:46:46.692Z,2.67
2023-04-30T13:49:14.693Z,2.00
2023-04-30T13:51:42.803Z,3.00
2023-04-30T13:54:10.855Z,1.00
2023-04-30T13:56:38.810Z,3.00
2023-04-30T13:59:06.704Z,2.00
2023-04-30T14:01:34.715Z,2.00
2023-04-30T14:04:03.136Z,2.67
2023-04-30T14:06:31.534Z,3.00
2023-04-30T14:08:59.916Z,2.00
2023-04-30T14:11:27.884Z,2.00
2023-04-30T14:13:55.837Z,2.00
2023-04-30T14:16:23.985Z,2.00
2023-04-30T14:18:52.626Z,2.67
2023-04-30T14:21:20.650Z,2.00
2023-04-30T14:23:48.613Z,2.00
2023-04-30T14:26:16.890Z,2.00
2023-04-30T14:28:44.927Z,2.00
2023-04-30T14:31:12.895Z,3.00
2023-04-30T14:33:41.410Z,2.00
2023-04-30T14:36:09.732Z,2.00
2023-04-30T14:38:37.817Z,2.00
2023-04-30T14:41:05.871Z,2.00
2023-04-30T14:43:33.936Z,2.00
2023-04-30T14:46:01.936Z,2.00
2023-04-30T14:48:30.182Z,2.00
2023-04-30T14:50:58.171Z,2.00
2023-04-30T14:53:26.162Z,2.00
2023-04-30T14:55:54.177Z,3.00
2023-04-30T14:58:22.413Z,2.00
2023-04-30T15:00:50.548Z,2.00
2023-04-30T15:03:18.512Z,1.00
2023-04-30T15:05:47.007Z,2.00
2023-04-30T15:08:16.530Z,2.00
2023-04-30T15:10:45.048Z,1.67
2023-04-30T15:13:14.254Z,2.00
2023-04-30T15:15:43.160Z,2.00
2023-04-30T15:18:11.089Z,1.67
2023-04-30T15:20:39.103Z,2.00
2023-04-30T15:23:08.245Z,1.33
2023-04-30T15:25:36.127Z,1.00
2023-04-30T15:28:04.446Z,2.00
2023-04-30T15:30:32.409Z,2.00
2023-04-30T15:33:00.352Z,1.00
2023-04-30T15:35:28.232Z,2.00
2023-04-30T15:37:56.306Z,1.00
2023-04-30T15:40:24.442Z,1.00
2023-04-30T15:42:52.550Z,0.00
2023-04-30T15:45:20.960Z,1.00
2023-04-30T15:47:49.231Z,1.00
2023-04-30T15:50:17.209Z,1.00
2023-04-30T15:52:45.973Z,1.33
2023-04-30T15:55:14.135Z,1.00
2023-04-30T15:57:42.029Z,1.00
2023-04-30T16:00:11.108Z,1.00
2023-04-30T16:02:42.184Z,2.00
2023-04-30T16:05:10.688Z,1.33
2023-04-30T16:07:40.062Z,2.00
2023-04-30T16:10:10.427Z,2.00
2023-04-30T16:12:38.451Z,2.00
2023-04-30T16:15:07.292Z,2.00
2023-04-30T16:17:35.369Z,2.00
2023-04-30T16:20:03.972Z,1.00
2023-04-30T16:22:32.092Z,1.00
2023-04-30T16:25:00.202Z,1.00
2023-04-30T16:27:29.758Z,1.00
2023-04-30T16:29:57.896Z,1.00
2023-04-30T16:32:26.241Z,0.33
2023-04-30T16:34:55.289Z,1.00
2023-04-30T16:37:23.717Z,1.00
2023-04-30T16:39:51.969Z,1.00
2023-04-30T16:42:20.403Z,1.00
2023-04-30T16:44:48.297Z,0.67
2023-04-30T16:47:18.708Z,1.00
2023-04-30T16:49:47.266Z,1.00
2023-04-30T16:52:15.735Z,1.00
2023-04-30T16:54:44.233Z,1.00
2023-04-30T16:57:12.198Z,1.00
2023-04-30T16:59:41.069Z,1.00
2023-04-30T17:02:09.154Z,0.33
2023-04-30T17:04:37.309Z,1.00
2023-04-30T17:07:05.208Z,1.00
2023-04-30T17:09:33.167Z,0.00
2023-04-30T17:12:02.233Z,1.00
2023-04-30T17:14:30.521Z,0.00
2023-04-30T17:16:58.552Z,1.00
2023-04-30T17:19:26.519Z,0.00
2023-04-30T17:21:55.157Z,0.00
2023-04-30T17:24:24.313Z,0.00
2023-04-30T17:26:52.763Z,1.00
2023-04-30T17:29:21.081Z,0.00
2023-04-30T17:31:49.320Z,0.00
2023-04-30T17:34:17.387Z,0.67
2023-04-30T17:36:45.508Z,1.00
2023-04-30T17:39:13.410Z,0.00
2023-04-30T17:41:41.966Z,0.00
2023-04-30T17:44:10.001Z,1.00
2023-04-30T17:46:39.641Z,0.00
2023-04-30T17:49:08.326Z,0.00
2023-04-30T17:51:36.323Z,0.00
2023-04-30T17:54:05.525Z,0.33
2023-04-30T17:56:33.594Z,0.00
2023-04-30T17:59:01.933Z,1.00
2023-04-30T18:01:30.018Z,1.00
2023-04-30T18:03:59.682Z,1.00
2023-04-30T18:06:28.124Z,1.00
2023-04-30T18:08:56.316Z,0.00
2023-04-30T18:11:24.187Z,0.00
2023-04-30T18:13:52.262Z,0.33
2023-04-30T18:16:20.187Z,1.00
2023-04-30T18:18:48.204Z,0.00
2023-04-30T18:21:16.541Z,0.33
2023-04-30T18:23:44.638Z,1.00
2023-04-30T18:26:12.963Z,1.00
2023-04-30T18:28:41.558Z,1.00
2023-04-30T18:31:09.477Z,1.00
2023-04-30T18:33:37.635Z,0.00
2023-04-30T18:36:07.465Z,1.00
2023-04-30T18:38:35.364Z,1.00
2023-04-30T18:41:03.437Z,1.00
2023-04-30T18:43:31.467Z,1.00
2023-04-30T18:45:59.390Z,1.00
2023-04-30T18:48:27.828Z,1.00
2023-04-30T18:50:56.076Z,1.00
2023-04-30T18:53:25.300Z,1.00
2023-04-30T18:55:53.615Z,1.00
2023-04-30T18:58:22.360Z,2.00
2023-04-30T19:00:50.586Z,1.00
2023-04-30T19:05:46.944Z,1.00
2023-04-30T19:08:15.394Z,1.00
2023-04-30T19:10:43.388Z,2.00
2023-04-30T19:13:11.309Z,1.00
2023-04-30T19:15:43.425Z,2.00
2023-04-30T19:18:12.794Z,1.00
2023-04-30T19:20:41.339Z,1.00
2023-04-30T19:23:09.552Z,1.00
2023-04-30T19:25:37.867Z,1.33
2023-04-30T19:28:05.748Z,1.00
2023-04-30T19:30:34.493Z,1.00
2023-04-30T19:33:05.468Z,1.33
2023-04-30T19:35:34.808Z,1.33
2023-04-30T19:38:03.267Z,1.00
2023-04-30T19:40:31.276Z,1.00
2023-04-30T19:42:59.305Z,1.00
2023-04-30T19:45:27.380Z,1.00
2023-04-30T19:47:55.690Z,1.00
2023-04-30T19:50:23.847Z,2.00
2023-04-30T19:52:52.095Z,2.00
2023-04-30T19:55:20.000Z,1.00
2023-04-30T19:57:48.006Z,1.00
2023-04-30T20:00:16.167Z,0.00
2023-04-30T20:02:44.743Z,1.00
2023-04-30T20:05:12.899Z,1.00
2023-04-30T20:07:40.928Z,1.00
2023-04-30T20:10:09.934Z,1.00
2023-04-30T20:12:38.376Z,2.00
2023-04-30T20:15:06.817Z,2.00
2023-04-30T20:17:36.313Z,1.00
2023-04-30T20:20:05.887Z,1.33
2023-04-30T20:22:34.070Z,1.00
2023-04-30T20:25:02.660Z,1.00
2023-04-30T20:27:31.070Z,1.00
2023-04-30T20:29:59.514Z,1.00
2023-04-30T20:32:28.139Z,1.50
2023-04-30T20:34:56.280Z,1.00
2023-04-30T20:37:24.896Z,1.00
2023-04-30T20:39:53.203Z,1.00
2023-04-30T20:42:21.951Z,1.00
2023-04-30T20:44:49.892Z,1.00
2023-04-30T20:47:17.775Z,2.00
2023-04-30T20:49:46.231Z,1.00
2023-04-30T20:52:17.259Z,1.67
2023-04-30T20:54:47.061Z,1.00
2023-04-30T20:57:15.846Z,2.00
2023-04-30T20:59:43.961Z,1.00
2023-04-30T21:02:12.211Z,2.00
2023-04-30T21:04:40.252Z,1.00
2023-04-30T21:07:08.278Z,2.00
2023-04-30T21:09:37.077Z,1.00
2023-04-30T21:12:05.596Z,1.00
2023-04-30T21:14:34.289Z,1.00
2023-04-30T21:17:02.463Z,1.00
2023-04-30T21:19:31.598Z,2.00
2023-04-30T21:22:00.180Z,1.00
2023-04-30T21:24:30.900Z,1.00
2023-04-30T21:27:00.121Z,2.00
2023-04-30T21:29:28.302Z,0.00
2023-04-30T21:31:56.432Z,1.00
2023-04-30T21:34:24.810Z,1.00
2023-04-30T21:36:53.322Z,2.00
2023-04-30T21:39:21.743Z,2.00
2023-04-30T21:41:50.251Z,1.00
2023-04-30T21:44:18.325Z,1.00
2023-04-30T21:46:46.835Z,3.00
2023-04-30T21:49:15.359Z,1.00
2023-04-30T21:51:43.901Z,2.00
2023-04-30T21:54:11.927Z,2.00
2023-04-30T21:56:40.342Z,2.00
2023-04-30T21:59:08.248Z,1.00
2023-04-30T22:01:37.613Z,2.00
2023-04-30T22:04:06.126Z,1.00
2023-04-30T22:06:34.823Z,1.00
2023-04-30T22:09:04.616Z,2.00
2023-04-30T22:11:32.982Z,1.00
2023-04-30T22:14:01.319Z,1.33
2023-04-30T22:16:29.388Z,1.00
2023-04-30T22:19:00.841Z,1.50
2023-04-30T22:21:28.904Z,1.33
2023-04-30T22:23:58.444Z,2.00
2023-04-30T22:26:26.893Z,1.67
2023-04-30T22:28:54.810Z,1.00
2023-04-30T22:31:23.074Z,2.00
2023-04-30T22:33:51.007Z,1.00
2023-04-30T22:36:18.908Z,1.00
2023-04-30T22:38:46.934Z,1.00
2023-04-30T22:41:14.981Z,2.00
2023-04-30T22:43:43.232Z,1.33
2023-04-30T22:46:11.461Z,1.00
2023-04-30T22:48:39.753Z,1.00
2023-04-30T22:51:08.053Z,1.00
2023-04-30T22:53:36.078Z,2.00
2023-04-30T22:56:04.201Z,2.75
2023-04-30T22:58:32.755Z,2.00
2023-04-30T23:01:01.114Z,2.00
2023-04-30T23:03:29.077Z,1.00
2023-04-30T23:05:59.340Z,1.00
2023-04-30T23:08:27.425Z,1.00
2023-04-30T23:10:55.803Z,1.67
2023-04-30T23:13:24.652Z,2.00
2023-04-30T23:15:52.646Z,0.00
2023-04-30T23:18:21.661Z,1.00
2023-04-30T23:20:49.692Z,2.00
2023-04-30T23:23:17.748Z,2.00
2023-04-30T23:25:46.697Z,1.00
2023-04-30T23:28:14.582Z,0.00
2023-04-30T23:30:43.415Z,2.00
2023-04-30T23:33:11.974Z,1.00
2023-04-30T23:35:42.772Z,1.25
2023-04-30T23:38:10.939Z,2.00
2023-04-30T23:40:38.889Z,1.75
2023-04-30T23:43:06.981Z,2.00
2023-04-30T23:45:35.358Z,1.00
2023-04-30T23:48:03.865Z,1.00
2023-04-30T23:50:32.420Z,1.00
2023-04-30T23:53:00.389Z,2.00
2023-04-30T23:55:28.806Z,1.33
2023-04-30T23:57:56.874Z,1.00
